Terminal Aerodrome Forecast
Issued by NWS

Home | Current Version | Previous Version | Text Only | Print | Product List | Glossary Off
Versions: 1 2 3 4 5 6 7 8 9 10 11 12 13 14 15 16 17 18 19 20 21 22 23 24 25 26 27

000
FTUS43 KLOT 181735
TAFGYY
TAF
KGYY 181735Z 1818/1918 17015G25KT P6SM BKN250
     FM190000 18015G25KT P6SM BKN250 WS020/20060KT
     FM190800 19012KT P6SM SCT010 OVC020
     FM191200 18007KT 3SM -SHRA BR SCT005 OVC008
     FM191500 16006KT 1SM -SHRA BR SCT003 OVC005=

USA.gov is the U.S. government's official web portal to all federal, state and local government web resources and services.